Time;durP1;ratioP1;P1;durP2;ratioP2;P2;SDS_P1;SDS_P2;PMS_P1;PMS_P2;Temp;Humidity;BMP_temperature;BMP_pressure;BME280_temperature;BME280_humidity;BME280_pressure;Samples;Min_cycle;Max_cycle;Signal;HPM_P1;HPM_P2
2022/11/09 00:01:41;;;;;;;27.45;16.77;;;;;;;6.84;69.87;101929.31;1742665;81;25949;-61
2022/11/09 00:04:10;;;;;;;32.75;17.42;;;;;;;6.91;70.04;101924.50;1762203;80;28161;-60
2022/11/09 00:06:37;;;;;;;37.20;18.10;;;;;;;6.96;70.14;101932.67;1735573;82;25843;-61
2022/11/09 00:09:06;;;;;;;28.65;15.25;;;;;;;7.00;70.00;101932.03;1736232;82;25773;-61
2022/11/09 00:11:33;;;;;;;29.00;17.50;;;;;;;7.05;69.91;101931.28;1735790;82;25747;-61
2022/11/09 00:13:59;;;;;;;33.53;15.55;;;;;;;7.15;69.82;101932.50;1734579;82;25726;-61
2022/11/09 00:16:26;;;;;;;33.35;16.45;;;;;;;7.23;69.67;101937.90;1734776;82;28450;-61
2022/11/09 00:18:54;;;;;;;32.73;16.95;;;;;;;7.29;69.57;101941.11;1735178;82;27332;-61
2022/11/09 00:21:24;;;;;;;42.83;17.35;;;;;;;7.34;69.43;101932.81;1734830;82;25806;-61
2022/11/09 00:23:52;;;;;;;33.33;17.37;;;;;;;7.37;69.30;101931.31;1735176;82;25947;-61
2022/11/09 00:26:20;;;;;;;38.53;18.40;;;;;;;7.37;69.34;101932.66;1735626;82;25814;-61
2022/11/09 00:28:49;;;;;;;34.95;17.48;;;;;;;7.35;69.17;101930.53;1735177;82;27189;-61
2022/11/09 00:31:20;;;;;;;33.92;17.65;;;;;;;7.33;69.10;101927.95;1733945;82;25539;-61
2022/11/09 00:33:49;;;;;;;31.15;15.25;;;;;;;7.34;69.20;101924.33;1734837;82;25656;-61
2022/11/09 00:36:19;;;;;;;33.70;17.52;;;;;;;7.30;68.89;101922.77;1734896;82;25780;-61
2022/11/09 00:38:52;;;;;;;35.33;17.12;;;;;;;7.27;69.15;101926.94;1736025;82;25829;-61
2022/11/09 00:41:20;;;;;;;35.55;17.35;;;;;;;7.24;69.12;101922.23;1736171;82;28166;-61
2022/11/09 00:43:48;;;;;;;30.32;17.27;;;;;;;7.20;69.24;101923.77;1735102;82;25760;-61
2022/11/09 00:46:16;;;;;;;37.73;17.67;;;;;;;7.21;69.28;101924.61;1734604;82;25743;-61
2022/11/09 00:48:44;;;;;;;27.30;16.00;;;;;;;7.20;69.38;101921.09;1731598;82;26069;-61
2022/11/09 00:51:13;;;;;;;36.45;17.98;;;;;;;7.20;69.23;101922.42;1675364;84;25979;-61
2022/11/09 00:53:42;;;;;;;32.40;17.95;;;;;;;7.24;69.32;101918.22;1729291;82;27576;-61
2022/11/09 00:56:11;;;;;;;29.45;16.75;;;;;;;7.23;69.39;101912.47;1735383;82;25822;-61
2022/11/09 00:58:40;;;;;;;34.98;17.92;;;;;;;7.23;69.65;101920.50;1737645;82;25502;-61
2022/11/09 01:01:10;;;;;;;30.97;17.32;;;;;;;7.22;69.82;101911.63;1738148;82;25811;-61
2022/11/09 01:03:38;;;;;;;33.38;16.90;;;;;;;7.22;70.02;101910.28;1754555;80;25772;-61
2022/11/09 01:06:07;;;;;;;35.70;18.50;;;;;;;7.28;70.51;101915.28;1739209;81;28180;-61
2022/11/09 01:08:36;;;;;;;35.43;16.80;;;;;;;7.34;70.44;101911.40;1738502;82;25813;-61
2022/11/09 01:11:08;;;;;;;36.93;16.90;;;;;;;7.42;70.53;101912.31;1738166;82;25799;-61
2022/11/09 01:13:37;;;;;;;37.20;18.45;;;;;;;7.51;70.66;101910.45;1737293;82;26470;-61
2022/11/09 01:16:09;;;;;;;37.95;16.80;;;;;;;7.57;70.58;101906.07;1738175;82;25673;-61
2022/11/09 01:18:37;;;;;;;33.95;18.12;;;;;;;7.62;70.72;101909.33;1737776;82;28264;-61
2022/11/09 01:21:08;;;;;;;31.12;17.12;;;;;;;7.70;70.80;101908.05;1737994;82;25755;-61
2022/11/09 01:23:35;;;;;;;44.33;17.73;;;;;;;7.79;70.84;101905.68;1737579;82;26274;-61
2022/11/09 01:26:09;;;;;;;43.42;18.62;;;;;;;7.84;70.75;101901.39;1738096;82;26797;-61
2022/11/09 01:28:36;;;;;;;34.65;17.55;;;;;;;7.92;70.69;101902.29;1737700;82;25830;-61
2022/11/09 01:31:11;;;;;;;38.85;17.35;;;;;;;7.99;70.60;101895.60;1737591;82;28366;-61
2022/11/09 01:33:38;;;;;;;31.85;16.37;;;;;;;8.07;70.58;101888.45;1718100;82;25786;-61
2022/11/09 01:36:09;;;;;;;33.18;16.70;;;;;;;8.12;70.44;101892.55;1738006;82;25858;-61
2022/11/09 01:38:38;;;;;;;28.35;15.55;;;;;;;8.18;70.21;101891.33;1737619;82;25766;-61
2022/11/09 01:41:08;;;;;;;33.23;17.27;;;;;;;8.21;70.04;101889.81;1737973;82;25861;-60
2022/11/09 01:43:35;;;;;;;31.27;16.80;;;;;;;8.19;69.81;101886.35;1737458;82;27693;-60
2022/11/09 01:46:13;;;;;;;31.55;16.05;;;;;;;8.17;69.67;101886.06;1736521;82;25870;-61
2022/11/09 01:48:55;;;;;;;35.83;16.62;;;;;;;8.12;69.54;101885.01;1737758;82;25740;-60
2022/11/09 01:51:39;;;;;;;36.33;18.00;;;;;;;8.05;69.53;101877.80;1732495;82;25813;-60
2022/11/09 01:54:14;;;;;;;45.78;18.80;;;;;;;8.04;69.48;101885.95;1738209;82;25843;-60
2022/11/09 01:56:43;;;;;;;31.33;17.17;;;;;;;8.03;69.46;101888.23;1716543;82;27543;-60
2022/11/09 01:59:14;;;;;;;32.40;17.98;;;;;;;7.98;69.23;101887.17;1738382;82;25776;-60
2022/11/09 02:01:42;;;;;;;36.42;17.48;;;;;;;7.90;69.10;101892.98;1738335;81;25815;-60
2022/11/09 02:04:21;;;;;;;35.98;17.40;;;;;;;7.87;69.22;101890.96;1718818;81;25807;-60
2022/11/09 02:06:50;;;;;;;36.83;18.90;;;;;;;7.84;69.24;101890.67;1735283;82;27368;-61
2022/11/09 02:09:48;;;;;;;43.90;17.02;;;;;;;7.82;69.21;101890.77;1739065;82;27608;-61
2022/11/09 02:12:21;;;;;;;36.58;17.42;;;;;;;7.79;69.23;101889.61;1714627;82;25772;-61
2022/11/09 02:14:51;;;;;;;41.28;17.73;;;;;;;7.73;69.14;101889.98;1737546;82;25714;-60
2022/11/09 02:17:19;;;;;;;33.60;16.93;;;;;;;7.68;69.18;101886.69;1738121;82;25746;-60
2022/11/09 02:19:46;;;;;;;30.82;18.25;;;;;;;7.62;69.02;101881.70;1737414;82;25992;-60
2022/11/09 02:22:14;;;;;;;38.53;16.77;;;;;;;7.55;69.11;101884.36;1736999;82;27640;-60
2022/11/09 02:24:41;;;;;;;39.95;18.23;;;;;;;7.47;69.07;101881.66;1737527;82;25844;-62
2022/11/09 02:27:08;;;;;;;36.20;16.25;;;;;;;7.43;69.19;101875.22;1737868;82;25742;-62
2022/11/09 02:29:39;;;;;;;38.53;17.75;;;;;;;7.39;69.33;101884.37;1737547;82;25833;-62
2022/11/09 02:32:22;;;;;;;35.60;17.07;;;;;;;7.36;69.60;101888.09;1737970;82;25503;-62
2022/11/09 02:34:49;;;;;;;28.23;16.97;;;;;;;7.33;69.85;101886.45;1738291;81;28463;-62
2022/11/09 02:37:32;;;;;;;34.67;16.23;;;;;;;7.31;70.02;101883.45;1737856;82;25743;-61
2022/11/09 02:40:06;;;;;;;31.90;16.32;;;;;;;7.30;70.17;101891.13;1737909;82;25801;-60
2022/11/09 02:42:35;;;;;;;28.50;15.65;;;;;;;7.26;70.24;101894.42;1736936;82;25874;-60
2022/11/09 02:45:03;;;;;;;32.00;16.30;;;;;;;7.26;70.41;101897.59;1734111;82;25802;-61
2022/11/09 02:47:30;;;;;;;33.18;15.63;;;;;;;7.30;70.68;101898.67;1738370;82;27565;-61
2022/11/09 02:49:58;;;;;;;34.73;16.02;;;;;;;7.31;70.87;101899.52;1754884;80;25837;-61
2022/11/09 02:52:27;;;;;;;33.05;15.15;;;;;;;7.32;70.68;101905.27;1728422;82;25727;-61
2022/11/09 02:54:55;;;;;;;33.25;15.20;;;;;;;7.33;70.70;101909.67;1715370;82;25768;-62
2022/11/09 02:57:22;;;;;;;32.15;15.75;;;;;;;7.35;70.96;101914.47;1743373;82;25515;-61
2022/11/09 02:59:50;;;;;;;28.07;15.53;;;;;;;7.36;70.66;101909.50;1743060;82;27479;-61
2022/11/09 03:02:21;;;;;;;26.57;15.03;;;;;;;7.41;70.77;101910.09;1717337;82;25711;-61
2022/11/09 03:04:50;;;;;;;33.80;15.25;;;;;;;7.46;70.69;101912.05;1721564;82;25852;-61
2022/11/09 03:07:18;;;;;;;36.88;16.82;;;;;;;7.54;70.63;101906.72;1745002;82;26673;-61
2022/11/09 03:09:47;;;;;;;35.98;15.88;;;;;;;7.60;70.67;101905.91;1744635;81;25502;-61
2022/11/09 03:12:31;;;;;;;29.42;14.15;;;;;;;7.67;70.69;101903.25;1743165;82;27501;-61
2022/11/09 03:15:06;;;;;;;36.42;15.55;;;;;;;7.75;70.61;101912.64;1742093;82;25771;-61
2022/11/09 03:17:34;;;;;;;29.15;14.40;;;;;;;7.82;70.63;101908.65;1743331;82;25803;-61
2022/11/09 03:20:01;;;;;;;34.03;16.12;;;;;;;7.85;70.50;101911.16;1743418;81;25775;-61
2022/11/09 03:22:28;;;;;;;30.17;14.33;;;;;;;7.89;70.47;101906.48;1743263;82;25748;-61
2022/11/09 03:24:57;;;;;;;30.57;15.48;;;;;;;7.93;70.40;101906.70;1743034;81;26906;-61
2022/11/09 03:27:25;;;;;;;34.88;15.98;;;;;;;7.93;70.21;101905.36;1743044;82;25693;-61
2022/11/09 03:29:52;;;;;;;35.92;15.70;;;;;;;7.92;70.03;101907.16;1743059;82;25818;-61
2022/11/09 03:32:20;;;;;;;35.08;16.95;;;;;;;7.90;69.76;101903.70;1743355;82;26478;-61
2022/11/09 03:34:48;;;;;;;34.88;16.07;;;;;;;7.88;69.58;101907.42;1742106;82;25791;-61
2022/11/09 03:37:15;;;;;;;39.98;16.10;;;;;;;7.86;69.66;101910.67;1743327;81;29539;-61
2022/11/09 03:39:42;;;;;;;35.50;16.67;;;;;;;7.82;69.87;101907.31;1743470;81;25804;-62
2022/11/09 03:42:09;;;;;;;37.90;15.58;;;;;;;7.81;69.96;101906.92;1743183;82;25775;-61
2022/11/09 03:44:37;;;;;;;31.70;15.03;;;;;;;7.78;69.91;101906.62;1743452;82;25762;-61
2022/11/09 03:47:04;;;;;;;31.57;16.75;;;;;;;7.77;69.99;101908.07;1743901;82;25806;-61
2022/11/09 03:49:31;;;;;;;45.75;17.15;;;;;;;7.77;69.97;101908.92;1744188;81;27495;-61
2022/11/09 03:51:58;;;;;;;42.78;16.23;;;;;;;7.73;69.89;101904.70;1743602;82;25835;-61
2022/11/09 03:54:25;;;;;;;38.08;17.40;;;;;;;7.69;69.91;101903.15;1743336;81;25834;-61
2022/11/09 03:56:52;;;;;;;34.58;15.70;;;;;;;7.68;69.88;101906.78;1743216;82;25775;-61
2022/11/09 03:59:19;;;;;;;36.17;16.20;;;;;;;7.65;70.00;101904.30;1743340;82;27367;-61
2022/11/09 04:01:48;;;;;;;35.68;15.93;;;;;;;7.65;70.16;101906.97;1718254;82;26031;-61
2022/11/09 04:04:15;;;;;;;34.45;15.53;;;;;;;7.66;70.23;101899.33;1767225;80;25817;-61
2022/11/09 04:06:44;;;;;;;32.80;15.03;;;;;;;7.68;70.38;101906.78;1743030;81;25716;-61
2022/11/09 04:09:11;;;;;;;39.55;16.30;;;;;;;7.71;70.59;101911.12;1743128;80;25799;-61
2022/11/09 04:11:40;;;;;;;31.07;15.50;;;;;;;7.73;70.68;101904.70;1742947;82;25727;-61
2022/11/09 04:14:07;;;;;;;37.48;16.75;;;;;;;7.78;70.74;101910.65;1743466;82;27457;-61
2022/11/09 04:16:34;;;;;;;31.17;15.28;;;;;;;7.79;70.79;101911.53;1742723;81;25783;-61
2022/11/09 04:19:00;;;;;;;31.87;15.93;;;;;;;7.80;70.91;101914.11;1743515;81;25762;-61
2022/11/09 04:21:27;;;;;;;35.08;14.93;;;;;;;7.83;70.95;101913.94;1743205;81;25853;-61
2022/11/09 04:23:54;;;;;;;44.80;17.10;;;;;;;7.86;70.96;101918.25;1743348;82;25506;-61
2022/11/09 04:26:20;;;;;;;41.00;17.12;;;;;;;7.92;71.05;101919.70;1744174;82;27637;-61
2022/11/09 04:28:47;;;;;;;38.92;17.23;;;;;;;7.93;71.03;101921.44;1743176;82;25455;-61
2022/11/09 04:31:16;;;;;;;41.55;16.17;;;;;;;7.95;70.95;101924.86;1743163;82;25760;-61
2022/11/09 04:33:43;;;;;;;42.45;17.42;;;;;;;7.99;70.80;101924.59;1743514;81;25949;-61
2022/11/09 04:36:10;;;;;;;37.38;16.60;;;;;;;8.03;70.68;101929.28;1742504;82;26879;-61
2022/11/09 04:38:37;;;;;;;38.02;17.50;;;;;;;8.06;70.60;101926.44;1743336;82;27351;-61
2022/11/09 04:41:05;;;;;;;33.20;16.85;;;;;;;8.11;70.55;101932.37;1743397;81;25803;-61
2022/11/09 04:43:32;;;;;;;39.90;17.30;;;;;;;8.13;70.51;101928.28;1743444;82;25736;-61
2022/11/09 04:46:04;;;;;;;42.25;19.30;;;;;;;8.15;70.39;101936.61;1743018;82;25831;-61
2022/11/09 04:48:32;;;;;;;32.53;18.12;;;;;;;8.18;70.38;101929.34;1734727;81;25719;-61
2022/11/09 04:51:02;;;;;;;54.53;19.27;;;;;;;8.20;70.14;101928.29;1733723;81;28133;-61
2022/11/09 04:53:31;;;;;;;38.45;17.17;;;;;;;8.18;69.77;101932.03;1742658;82;25458;-61
2022/11/09 04:56:00;;;;;;;40.73;18.75;;;;;;;8.14;69.60;101933.54;1742675;82;25752;-61
2022/11/09 04:58:29;;;;;;;43.78;18.67;;;;;;;8.10;69.35;101940.05;1742360;81;25836;-61
2022/11/09 05:01:06;;;;;;;52.15;19.67;;;;;;;8.02;69.29;101935.63;1742622;81;26111;-61
2022/11/09 05:03:34;;;;;;;31.60;17.23;;;;;;;7.97;69.31;101946.62;1749083;80;27488;-61
2022/11/09 05:06:30;;;;;;;41.42;18.27;;;;;;;7.94;69.28;101944.11;1743095;81;25687;-61
2022/11/09 05:08:30;;;;;;;38.33;17.35;;;;;;;7.90;69.14;101945.72;1739209;82;25768;-61
2022/11/09 05:10:57;;;;;;;34.55;18.60;;;;;;;7.83;69.55;101942.52;1743317;82;25956;-61
2022/11/09 05:13:23;;;;;;;45.85;19.27;;;;;;;7.73;69.32;101941.33;1743649;81;25759;-61
2022/11/09 05:15:50;;;;;;;43.83;20.17;;;;;;;7.67;69.47;101943.88;1744998;81;28316;-61
2022/11/09 05:18:17;;;;;;;41.63;19.17;;;;;;;7.65;69.58;101953.84;1744079;82;25699;-61
2022/11/09 05:20:44;;;;;;;48.55;18.80;;;;;;;7.63;69.66;101951.72;1743703;81;25550;-62
2022/11/09 05:25:56;;;;;;;41.05;17.40;;;;;;;7.62;69.87;101948.66;1743731;81;25772;-61
2022/11/09 05:28:23;;;;;;;57.03;19.25;;;;;;;7.58;69.67;101951.10;1742918;82;28410;-61
2022/11/09 05:30:49;;;;;;;45.35;17.75;;;;;;;7.55;69.90;101952.64;1742708;81;26479;-61
2022/11/09 05:33:16;;;;;;;40.40;16.82;;;;;;;7.55;69.88;101962.02;1742338;82;25743;-61
2022/11/09 05:35:43;;;;;;;58.73;18.98;;;;;;;7.57;70.19;101965.47;1743071;82;25851;-61
2022/11/09 05:38:10;;;;;;;42.27;17.65;;;;;;;7.61;70.24;101965.67;1743535;82;25446;-61
2022/11/09 05:40:37;;;;;;;44.70;16.62;;;;;;;7.64;70.51;101973.54;1743027;81;28364;-61
2022/11/09 05:43:04;;;;;;;38.92;16.93;;;;;;;7.68;70.55;101976.41;1742783;82;25870;-61
2022/11/09 05:45:31;;;;;;;64.35;17.35;;;;;;;7.74;70.74;101978.77;1743335;81;25756;-61
2022/11/09 05:47:57;;;;;;;48.58;16.42;;;;;;;7.81;70.76;101982.81;1742874;82;25928;-61
2022/11/09 05:50:24;;;;;;;53.70;15.78;;;;;;;7.88;70.82;101983.78;1744483;82;25744;-62
2022/11/09 05:52:53;;;;;;;49.00;17.07;;;;;;;7.96;70.90;101992.23;1743812;82;27648;-62
2022/11/09 05:55:20;;;;;;;56.80;16.12;;;;;;;8.02;70.75;101986.55;1742998;82;25824;-61
2022/11/09 05:57:47;;;;;;;58.70;17.27;;;;;;;8.07;70.70;101988.47;1738430;81;25697;-61
2022/11/09 06:00:15;;;;;;;45.80;16.62;;;;;;;8.10;70.61;101984.28;1745100;80;26537;-62
2022/11/09 06:02:42;;;;;;;49.20;18.52;;;;;;;8.17;70.60;101986.58;1748459;80;25822;-60
2022/11/09 06:05:09;;;;;;;46.73;16.87;;;;;;;8.22;70.44;101992.52;1738691;82;27472;-60
2022/11/09 06:07:37;;;;;;;59.65;19.17;;;;;;;8.24;70.23;101993.30;1738358;81;25705;-61
2022/11/09 06:10:06;;;;;;;49.20;18.57;;;;;;;8.26;70.31;101993.59;1737827;82;25709;-61
2022/11/09 06:12:33;;;;;;;45.17;18.42;;;;;;;8.28;70.09;101996.20;1737249;82;25770;-61
2022/11/09 06:15:00;;;;;;;47.83;20.95;;;;;;;8.24;69.82;101993.30;1738796;82;25721;-61
2022/11/09 06:17:27;;;;;;;47.45;19.82;;;;;;;8.19;69.52;101994.06;1737974;82;27478;-61
2022/11/09 06:19:54;;;;;;;71.50;24.57;;;;;;;8.15;69.41;101992.90;1737207;82;25688;-61
2022/11/09 06:22:21;;;;;;;59.00;21.62;;;;;;;8.12;69.33;101990.39;1737642;82;25771;-61
2022/11/09 06:24:48;;;;;;;58.80;20.68;;;;;;;8.08;69.25;101998.70;1738278;82;25793;-61
2022/11/09 06:27:15;;;;;;;59.38;17.85;;;;;;;8.02;69.19;101997.72;1721971;81;25799;-61
2022/11/09 06:29:42;;;;;;;44.48;18.32;;;;;;;7.98;69.26;101993.02;1738473;82;27542;-61
2022/11/09 06:32:09;;;;;;;51.25;19.57;;;;;;;7.91;69.14;101991.17;1737313;82;25750;-61
2022/11/09 06:34:36;;;;;;;38.45;19.77;;;;;;;7.87;69.16;101991.44;1751819;80;25790;-61
2022/11/09 06:37:03;;;;;;;49.00;21.35;;;;;;;7.84;69.15;101987.97;1775833;80;26741;-60
2022/11/09 06:39:30;;;;;;;58.48;20.68;;;;;;;7.80;69.15;101985.55;1735168;80;25709;-61
2022/11/09 06:41:56;;;;;;;38.08;18.15;;;;;;;7.77;69.73;101982.59;1737544;82;27480;-61
2022/11/09 06:44:23;;;;;;;42.40;19.25;;;;;;;7.76;69.87;101981.34;1737994;82;26078;-61
2022/11/09 06:46:50;;;;;;;39.60;19.52;;;;;;;7.77;69.68;101986.60;1739262;82;25687;-61
2022/11/09 06:49:17;;;;;;;50.35;19.00;;;;;;;7.81;70.32;101985.95;1737045;81;25896;-61
2022/11/09 06:51:44;;;;;;;33.73;18.00;;;;;;;7.87;70.20;101986.07;1738156;82;26146;-61
2022/11/09 06:54:11;;;;;;;41.05;19.82;;;;;;;7.96;70.90;101980.19;1723984;81;28353;-61
2022/11/09 06:56:37;;;;;;;39.25;19.87;;;;;;;7.98;70.45;101979.63;1738097;81;26412;-61
2022/11/09 06:59:05;;;;;;;55.75;18.30;;;;;;;8.06;70.50;101976.02;1737083;82;25712;-60
2022/11/09 07:01:32;;;;;;;49.27;18.82;;;;;;;8.20;70.68;101975.70;1735604;82;26654;-61
2022/11/09 07:03:59;;;;;;;37.58;19.27;;;;;;;8.32;70.70;101973.60;1736820;80;25766;-61
2022/11/09 07:06:26;;;;;;;52.45;19.40;;;;;;;8.45;70.44;101981.31;1735222;82;27549;-61
2022/11/09 07:08:57;;;;;;;45.70;18.55;;;;;;;8.55;70.41;101981.63;1735298;82;25787;-61
2022/11/09 07:11:24;;;;;;;49.10;18.52;;;;;;;8.66;70.47;101977.44;1734996;82;25773;-61
2022/11/09 07:13:52;;;;;;;37.78;17.90;;;;;;;8.76;70.51;101982.13;1735741;82;26499;-61
2022/11/09 07:16:19;;;;;;;44.70;18.27;;;;;;;8.88;70.21;101981.00;1735594;81;25921;-61
2022/11/09 07:18:46;;;;;;;40.92;17.25;;;;;;;8.96;70.03;101977.36;1735011;82;27465;-61
2022/11/09 07:21:13;;;;;;;44.88;16.60;;;;;;;9.02;69.75;101976.96;1735377;82;25700;-61
2022/11/09 07:23:40;;;;;;;41.05;17.30;;;;;;;9.10;69.83;101971.12;1735475;82;25723;-61
2022/11/09 07:26:07;;;;;;;39.30;18.00;;;;;;;9.19;69.40;101967.85;1735480;82;26535;-61
2022/11/09 07:28:36;;;;;;;39.20;17.35;;;;;;;9.27;69.11;101968.72;1735280;82;25732;-62
2022/11/09 07:31:03;;;;;;;48.55;19.07;;;;;;;9.35;68.99;101967.74;1735641;82;27451;-62
2022/11/09 07:33:32;;;;;;;39.20;18.65;;;;;;;9.43;68.71;101963.20;1735228;82;25834;-62
2022/11/09 07:36:01;;;;;;;41.70;20.45;;;;;;;9.47;68.53;101971.91;1734969;82;25707;-61
2022/11/09 07:38:28;;;;;;;55.33;20.82;;;;;;;9.51;68.47;101964.91;1734104;82;26481;-62
2022/11/09 07:41:00;;;;;;;51.40;21.57;;;;;;;9.60;68.45;101967.48;1735460;82;25766;-61
2022/11/09 07:43:28;;;;;;;47.03;22.65;;;;;;;9.68;68.48;101962.47;1734795;82;28149;-61
2022/11/09 07:45:57;;;;;;;59.80;23.98;;;;;;;9.80;68.37;101960.78;1736094;82;25718;-62
2022/11/09 07:48:24;;;;;;;76.37;33.02;;;;;;;9.92;68.12;101959.59;1734194;82;25711;-62
2022/11/09 07:50:51;;;;;;;67.75;27.35;;;;;;;10.05;68.04;101965.01;1735461;82;25773;-62
2022/11/09 07:53:17;;;;;;;68.70;30.32;;;;;;;10.20;67.70;101961.77;1719325;82;25764;-62
2022/11/09 07:55:44;;;;;;;92.53;35.60;;;;;;;10.31;67.36;101969.47;1713515;83;26827;-62
2022/11/09 07:58:14;;;;;;;74.85;33.83;;;;;;;10.43;67.31;101956.19;1710054;83;26537;-62
2022/11/09 08:00:42;;;;;;;86.90;37.98;;;;;;;10.58;67.09;101961.84;1748002;82;25868;-61
2022/11/09 08:03:10;;;;;;;90.90;36.83;;;;;;;10.75;66.58;101961.14;1760333;80;25885;-62
2022/11/09 08:05:38;;;;;;;95.62;39.58;;;;;;;10.88;66.02;101965.17;1784887;80;25956;-62
2022/11/09 08:08:08;;;;;;;92.05;35.65;;;;;;;11.05;66.17;101966.67;1785044;80;27665;-61
2022/11/09 08:10:35;;;;;;;110.08;39.65;;;;;;;11.24;66.16;101965.73;1784789;80;25827;-62
2022/11/09 08:13:07;;;;;;;96.28;36.75;;;;;;;11.47;66.04;101961.82;1785179;80;25630;-62
2022/11/09 08:15:37;;;;;;;119.75;43.55;;;;;;;11.67;65.81;101967.08;1784874;80;26285;-62
2022/11/09 08:18:09;;;;;;;93.52;38.98;;;;;;;11.88;65.37;101965.95;1779855;80;25789;-62
2022/11/09 08:20:36;;;;;;;85.72;32.63;;;;;;;12.09;64.88;101970.73;1744221;82;26984;-62
2022/11/09 08:23:03;;;;;;;66.00;29.42;;;;;;;12.29;64.03;101963.81;1744881;82;25795;-61
2022/11/09 08:25:33;;;;;;;56.63;25.62;;;;;;;12.49;63.87;101973.55;1744318;82;25807;-60
2022/11/09 08:28:02;;;;;;;57.88;19.50;;;;;;;12.62;62.82;101963.53;1745191;82;25821;-62
2022/11/09 08:30:29;;;;;;;39.40;19.50;;;;;;;12.79;61.85;101966.23;1740837;82;25858;-60
2022/11/09 08:32:55;;;;;;;39.00;16.93;;;;;;;12.91;61.28;101961.69;1744500;81;27463;-60
2022/11/09 08:35:24;;;;;;;37.23;17.05;;;;;;;13.07;61.32;101961.34;1725041;82;25501;-60
2022/11/09 08:37:52;;;;;;;38.63;16.87;;;;;;;13.27;60.18;101960.22;1727821;82;25713;-60
2022/11/09 08:40:23;;;;;;;34.95;15.45;;;;;;;13.44;58.79;101961.59;1752366;81;26488;-60
2022/11/09 08:42:51;;;;;;;31.42;14.33;;;;;;;13.60;58.46;101964.74;1752413;81;25846;-60
2022/11/09 08:45:19;;;;;;;22.55;12.80;;;;;;;13.90;58.11;101961.80;1752204;81;27465;-60
2022/11/09 08:47:46;;;;;;;26.60;12.93;;;;;;;14.51;57.77;101962.11;1752308;81;25708;-61
2022/11/09 08:50:14;;;;;;;25.68;13.70;;;;;;;15.24;55.31;101961.22;1752165;81;25747;-61
2022/11/09 08:52:41;;;;;;;35.83;15.63;;;;;;;15.73;53.91;101954.03;1749542;81;25814;-61
2022/11/09 08:55:09;;;;;;;21.25;12.90;;;;;;;16.11;52.70;101959.63;1746697;82;25864;-61
2022/11/09 08:57:35;;;;;;;31.37;12.10;;;;;;;16.72;51.42;101954.31;1746292;81;27557;-61
2022/11/09 09:00:04;;;;;;;23.25;11.93;;;;;;;17.19;51.83;101957.51;1743880;82;25909;-61
2022/11/09 09:02:31;;;;;;;16.85;11.18;;;;;;;17.82;47.40;101962.63;1746833;79;25726;-61
2022/11/09 09:04:58;;;;;;;20.57;10.98;;;;;;;17.91;48.24;101968.14;1764354;80;26508;-61
2022/11/09 09:07:25;;;;;;;22.52;9.95;;;;;;;18.19;46.22;101959.42;1746144;81;25815;-61
2022/11/09 09:09:52;;;;;;;18.67;9.58;;;;;;;18.42;45.99;101961.11;1746284;81;27468;-61
2022/11/09 09:12:19;;;;;;;12.05;8.48;;;;;;;18.72;45.41;101963.54;1749029;81;25553;-61
2022/11/09 09:14:46;;;;;;;20.72;9.43;;;;;;;18.83;44.60;101961.87;1750095;81;25815;-61
2022/11/09 09:17:13;;;;;;;19.70;10.40;;;;;;;18.92;44.80;101959.58;1749443;81;26613;-61
2022/11/09 09:19:40;;;;;;;17.92;9.65;;;;;;;18.96;44.35;101956.53;1748732;81;26426;-61
2022/11/09 09:22:07;;;;;;;21.07;10.08;;;;;;;19.19;45.64;101952.20;1749318;81;27483;-61
2022/11/09 09:24:34;;;;;;;13.43;9.23;;;;;;;19.59;43.69;101953.84;1754667;81;26135;-61
2022/11/09 09:27:01;;;;;;;140.03;72.70;;;;;;;19.87;42.53;101949.49;1754485;81;25817;-61
2022/11/09 09:29:28;;;;;;;197.22;114.15;;;;;;;19.80;42.80;101949.80;1749104;81;25801;-61
2022/11/09 09:31:55;;;;;;;39.23;20.85;;;;;;;19.96;43.88;101947.11;1746540;81;25502;-62
2022/11/09 09:34:22;;;;;;;48.15;24.35;;;;;;;20.33;41.48;101949.84;1747935;81;27517;-61
2022/11/09 09:36:53;;;;;;;121.17;56.88;;;;;;;20.10;41.88;101952.41;1742652;81;26664;-61
2022/11/09 09:39:20;;;;;;;32.55;16.23;;;;;;;19.94;41.50;101940.99;1746809;81;25802;-61
2022/11/09 09:42:02;;;;;;;22.67;12.13;;;;;;;20.31;41.40;101946.95;1747716;81;25795;-61
2022/11/09 09:44:46;;;;;;;14.60;9.75;;;;;;;20.58;41.51;101944.33;1746834;81;25803;-61
2022/11/09 09:47:34;;;;;;;18.52;10.60;;;;;;;20.79;41.33;101936.12;1747355;80;29620;-61
2022/11/09 09:50:05;;;;;;;15.40;10.45;;;;;;;21.14;41.97;101933.93;1706338;81;25860;-61
2022/11/09 09:53:00;;;;;;;18.17;11.95;;;;;;;21.54;38.99;101936.12;1746912;81;25845;-61
2022/11/09 09:55:47;;;;;;;12.78;10.25;;;;;;;21.50;39.03;101931.19;1749649;81;25855;-61
2022/11/09 09:58:19;;;;;;;20.12;10.68;;;;;;;21.51;39.93;101932.36;1746062;81;27264;-61
2022/11/09 10:00:47;;;;;;;23.15;10.50;;;;;;;21.66;39.24;101934.34;1743752;81;28476;-61
2022/11/09 10:03:19;;;;;;;17.20;10.95;;;;;;;21.60;38.44;101933.21;1744873;80;25760;-61
2022/11/09 10:06:04;;;;;;;17.92;11.05;;;;;;;21.26;39.02;101928.91;1744432;82;25763;-61
2022/11/09 10:08:48;;;;;;;21.70;12.75;;;;;;;21.17;39.16;101929.48;1740634;82;28172;-62
2022/11/09 10:11:34;;;;;;;17.50;12.35;;;;;;;20.47;39.93;101929.69;1744483;81;26663;-61
2022/11/09 10:14:45;;;;;;;21.82;12.90;;;;;;;20.22;41.32;101925.59;1744762;82;27483;-61
2022/11/09 10:17:32;;;;;;;32.23;14.07;;;;;;;20.27;41.54;101916.39;1744539;82;26126;-61
2022/11/09 10:20:38;;;;;;;22.48;12.58;;;;;;;20.46;40.46;101917.04;1744566;82;25791;-61
2022/11/09 10:23:42;;;;;;;21.37;13.88;;;;;;;20.56;40.63;101923.17;1744480;82;25863;-61
2022/11/09 10:26:22;;;;;;;21.45;13.98;;;;;;;20.24;40.76;101917.25;1744699;82;25731;-62
2022/11/09 10:28:54;;;;;;;29.37;14.68;;;;;;;20.16;41.31;101917.60;1744128;82;27484;-62
2022/11/09 10:31:23;;;;;;;25.65;14.93;;;;;;;20.04;40.95;101916.75;1743696;82;25766;-62
2022/11/09 10:33:55;;;;;;;24.27;14.65;;;;;;;19.60;41.93;101914.63;1744516;82;25669;-62
2022/11/09 10:36:32;;;;;;;23.35;14.15;;;;;;;19.43;42.22;101914.25;1744306;82;25798;-62
2022/11/09 10:39:00;;;;;;;31.20;14.58;;;;;;;18.75;43.29;101915.00;1744409;82;25748;-62
2022/11/09 10:41:46;;;;;;;27.10;16.02;;;;;;;18.11;44.31;101909.83;1744547;82;27485;-62
2022/11/09 10:44:31;;;;;;;27.50;14.70;;;;;;;17.49;45.61;101908.36;1744496;82;25727;-62
2022/11/09 10:47:17;;;;;;;30.75;14.85;;;;;;;17.05;46.58;101907.20;1744298;82;25982;-61
2022/11/09 10:50:22;;;;;;;25.43;15.58;;;;;;;16.57;47.92;101906.39;1744629;82;26452;-62
2022/11/09 10:53:21;;;;;;;27.27;16.35;;;;;;;16.03;48.80;101895.72;1744146;82;25517;-62
2022/11/09 10:56:18;;;;;;;30.15;16.52;;;;;;;15.71;49.49;101890.91;1744613;82;27457;-61
2022/11/09 10:59:25;;;;;;;33.00;16.27;;;;;;;15.41;50.98;101892.77;1749375;81;25710;-62
2022/11/09 11:02:28;;;;;;;29.70;17.77;;;;;;;15.08;52.33;101882.62;1751320;81;26412;-61
2022/11/09 11:05:22;;;;;;;37.48;16.87;;;;;;;14.78;53.03;101880.34;1779944;80;25727;-61
2022/11/09 11:08:27;;;;;;;46.50;16.87;;;;;;;14.51;53.97;101881.77;1746603;81;25754;-61
2022/11/09 11:11:32;;;;;;;30.57;17.48;;;;;;;14.35;54.60;101877.30;1748661;81;27505;-62
2022/11/09 11:14:35;;;;;;;33.00;16.67;;;;;;;14.22;55.46;101877.52;1747853;81;26036;-62
2022/11/09 11:17:31;;;;;;;30.70;17.45;;;;;;;14.03;55.97;101872.84;1725090;81;25763;-62
2022/11/09 11:20:31;;;;;;;34.85;18.27;;;;;;;13.92;56.12;101865.66;1746867;81;26469;-62
2022/11/09 11:23:23;;;;;;;28.62;16.82;;;;;;;13.88;56.52;101862.84;1744121;81;25739;-62
2022/11/09 11:26:43;;;;;;;37.03;17.15;;;;;;;13.82;56.80;101866.92;1750325;81;27486;-62
2022/11/09 11:29:55;;;;;;;30.48;16.25;;;;;;;13.79;57.02;101860.44;1740463;82;25949;-62
2022/11/09 11:32:40;;;;;;;29.05;16.12;;;;;;;13.70;57.32;101850.41;1744495;82;25795;-61
2022/11/09 11:35:33;;;;;;;31.70;16.73;;;;;;;13.67;57.75;101859.61;1746605;81;26540;-61
2022/11/09 11:38:45;;;;;;;30.85;16.62;;;;;;;13.60;58.12;101844.42;1746565;82;25719;-61